Time;durP1;ratioP1;P1;durP2;ratioP2;P2;SDS_P1;SDS_P2;PMS_P1;PMS_P2;Temp;Humidity;BMP_temperature;BMP_pressure;BME280_temperature;BME280_humidity;BME280_pressure;Samples;Min_cycle;Max_cycle;Signal;HPM_P1;HPM_P2
2023/01/28 00:01:13;;;;;;;3.33;3.13;;;3.20;99.90;;;2.92;66.07;94321.78;4977969;28;20498;-57
2023/01/28 00:03:40;;;;;;;4.80;4.17;;;3.20;99.90;;;2.91;65.62;94320.13;4982020;28;20459;-56
2023/01/28 00:06:09;;;;;;;4.27;3.83;;;3.20;99.90;;;2.92;65.86;94326.97;4980018;28;20489;-57
2023/01/28 00:08:38;;;;;;;4.43;3.90;;;3.20;99.90;;;2.92;66.07;94324.38;4983803;28;20470;-55
2023/01/28 00:11:07;;;;;;;5.33;3.50;;;3.20;99.90;;;2.90;66.28;94329.69;4983019;28;20648;-54
2023/01/28 00:13:34;;;;;;;3.77;3.47;;;3.20;99.90;;;2.90;65.79;94329.69;4980132;28;20447;-57
2023/01/28 00:16:04;;;;;;;5.30;4.00;;;3.20;99.90;;;2.91;66.49;94340.91;4982339;28;20895;-58
2023/01/28 00:18:31;;;;;;;3.83;3.53;;;3.20;99.90;;;2.90;65.48;94329.69;4972962;28;20579;-56
2023/01/28 00:20:59;;;;;;;3.67;3.47;;;3.20;99.90;;;2.89;66.20;94342.78;4978985;28;20505;-54
2023/01/28 00:23:26;;;;;;;4.03;3.70;;;3.20;99.90;;;2.87;65.68;94337.69;4977342;28;21025;-56
2023/01/28 00:25:55;;;;;;;4.20;3.87;;;3.20;99.90;;;2.86;66.47;94349.00;4975648;28;20554;-55
2023/01/28 00:28:22;;;;;;;4.27;3.97;;;3.20;99.90;;;2.86;65.81;94351.59;4982703;28;20558;-55
2023/01/28 00:30:50;;;;;;;3.90;3.60;;;3.20;99.90;;;2.86;66.57;94346.41;4978404;28;21120;-58
2023/01/28 00:33:17;;;;;;;4.80;3.73;;;3.10;99.90;;;2.86;66.55;94349.81;4980158;28;20463;-60
2023/01/28 00:35:44;;;;;;;7.07;4.60;;;3.20;99.90;;;2.88;65.84;94352.31;4975515;28;20573;-56
2023/01/28 00:38:12;;;;;;;5.00;4.50;;;3.20;99.90;;;2.91;66.28;94351.28;4978449;28;20451;-54
2023/01/28 00:40:39;;;;;;;4.77;4.37;;;3.20;99.90;;;2.91;65.89;94357.31;4978343;28;20909;-58
2023/01/28 00:43:08;;;;;;;4.50;4.10;;;3.20;99.90;;;2.90;66.32;94347.88;4977938;28;21021;-57
2023/01/28 00:45:35;;;;;;;5.20;4.73;;;3.20;99.90;;;2.91;66.23;94356.47;4976703;28;20534;-59
2023/01/28 00:48:03;;;;;;;4.30;4.00;;;3.20;99.90;;;2.90;65.97;94360.00;4982490;28;20537;-57
2023/01/28 00:50:30;;;;;;;4.93;4.47;;;3.20;99.90;;;2.87;66.14;94361.06;4981615;28;20474;-57
2023/01/28 00:52:57;;;;;;;3.90;3.70;;;3.20;99.90;;;2.85;66.30;94358.56;4977787;28;20459;-58
2023/01/28 00:55:25;;;;;;;5.53;4.30;;;3.20;99.90;;;2.84;65.91;94371.66;4976264;28;20857;-55
2023/01/28 00:57:52;;;;;;;4.73;4.30;;;3.10;99.90;;;2.84;66.73;94363.88;4976945;28;20478;-56
2023/01/28 01:00:24;;;;;;;4.93;4.53;;;3.10;99.90;;;2.83;66.52;94360.44;4977760;28;20615;-58
2023/01/28 01:02:51;;;;;;;4.37;3.97;;;3.10;99.90;;;2.83;66.55;94363.03;4980974;28;20475;-56
2023/01/28 01:05:19;;;;;;;4.50;4.13;;;3.10;99.90;;;2.82;66.39;94369.16;4972482;28;20586;-55
2023/01/28 01:07:46;;;;;;;5.00;4.50;;;3.10;99.90;;;2.79;66.74;94363.34;4979188;28;20464;-58
2023/01/28 01:10:15;;;;;;;4.90;4.40;;;3.10;99.90;;;2.76;65.62;94367.00;4985069;28;21025;-56
2023/01/28 01:12:43;;;;;;;4.97;4.50;;;3.10;99.90;;;2.74;65.97;94365.44;4980721;28;20524;-58
2023/01/28 01:15:11;;;;;;;4.40;4.10;;;3.00;99.90;;;2.74;65.82;94361.06;4977276;28;22343;-58
2023/01/28 01:17:40;;;;;;;5.20;4.70;;;3.00;99.90;;;2.77;66.98;94360.84;4978328;28;20460;-58
2023/01/28 01:20:09;;;;;;;5.77;5.27;;;3.10;99.90;;;2.79;67.06;94364.19;4972180;28;20478;-57
2023/01/28 01:22:36;;;;;;;5.10;4.70;;;3.10;99.90;;;2.81;66.38;94370.09;4975015;28;20498;-57
2023/01/28 01:25:04;;;;;;;5.17;4.70;;;3.10;99.90;;;2.82;66.80;94369.16;4977719;28;20978;-57
2023/01/28 01:27:32;;;;;;;4.70;4.30;;;3.10;99.90;;;2.82;66.16;94369.16;4976022;28;20458;-58
2023/01/28 01:29:59;;;;;;;4.97;3.73;;;3.10;99.90;;;2.82;66.04;94371.78;4979677;28;20463;-57
2023/01/28 01:32:29;;;;;;;4.77;4.47;;;3.10;99.90;;;2.83;66.04;94373.41;4981127;28;20458;-57
2023/01/28 01:34:58;;;;;;;4.20;3.90;;;3.10;99.90;;;2.83;65.84;94372.59;4979798;28;20453;-56
2023/01/28 01:37:25;;;;;;;4.63;4.23;;;3.10;99.90;;;2.81;66.82;94377.88;4979675;28;20887;-56
2023/01/28 01:39:52;;;;;;;4.67;4.30;;;3.10;99.90;;;2.83;66.90;94383.81;4982555;28;21005;-55
2023/01/28 01:42:20;;;;;;;5.57;5.07;;;3.10;99.90;;;2.83;66.04;94375.19;4979169;28;20524;-57
2023/01/28 01:44:58;;;;;;;5.10;4.70;;;3.10;99.90;;;2.84;66.64;94375.09;4981995;28;20691;-56
2023/01/28 01:47:30;;;;;;;4.73;4.33;;;3.10;99.90;;;2.84;66.08;94377.69;4977650;28;20533;-55
2023/01/28 01:49:59;;;;;;;4.43;3.90;;;3.20;99.90;;;2.84;66.75;94380.28;4981560;28;20566;-55
2023/01/28 01:52:28;;;;;;;4.50;4.10;;;3.20;99.90;;;2.85;65.81;94381.09;4981691;28;20483;-58
2023/01/28 01:54:57;;;;;;;5.40;4.90;;;3.20;99.90;;;2.85;66.01;94379.34;4980559;28;20462;-58
2023/01/28 01:57:28;;;;;;;5.33;4.83;;;3.20;99.90;;;2.85;66.63;94378.50;4982197;28;20536;-57
2023/01/28 01:59:57;;;;;;;5.30;4.87;;;3.20;99.90;;;2.84;66.26;94372.50;4983432;28;20455;-59
2023/01/28 02:02:24;;;;;;;5.20;4.70;;;3.20;99.90;;;2.84;66.40;94372.50;4983354;28;20494;-58
2023/01/28 02:04:51;;;;;;;5.13;4.63;;;3.10;99.90;;;2.85;66.36;94381.94;4981729;28;20505;-55
2023/01/28 02:07:20;;;;;;;5.60;4.70;;;3.20;99.90;;;2.84;66.49;94387.25;4979468;28;20984;-55
2023/01/28 02:09:47;;;;;;;5.37;4.77;;;3.20;99.90;;;2.83;66.16;94381.19;4977445;28;20455;-57
2023/01/28 02:12:17;;;;;;;4.73;4.13;;;3.20;99.90;;;2.83;66.42;94386.41;4984806;28;20447;-57
2023/01/28 02:14:46;;;;;;;4.60;4.20;;;3.10;99.90;;;2.82;66.02;94384.75;4978337;28;20471;-57
2023/01/28 02:17:13;;;;;;;4.43;4.00;;;3.10;99.90;;;2.81;66.19;94392.66;4981800;28;20493;-57
2023/01/28 02:19:44;;;;;;;6.03;4.80;;;3.10;99.90;;;2.81;65.92;94393.47;4979751;28;20826;-58
2023/01/28 02:22:28;;;;;;;5.53;4.60;;;3.10;99.90;;;2.82;66.36;94394.28;4985436;28;20504;-56
2023/01/28 02:25:17;;;;;;;4.93;4.33;;;3.10;99.90;;;2.84;66.42;94392.44;4979077;28;20534;-56
2023/01/28 02:28:08;;;;;;;4.60;4.30;;;3.10;99.90;;;2.81;66.06;94396.06;4981370;28;20513;-57
2023/01/28 02:30:38;;;;;;;5.13;4.70;;;3.10;99.90;;;2.79;65.96;94389.31;4982865;28;20494;-58
2023/01/28 02:33:08;;;;;;;4.30;3.90;;;3.10;99.90;;;2.83;66.34;94395.97;4978313;28;20454;-56
2023/01/28 02:35:39;;;;;;;4.37;4.07;;;3.10;99.90;;;2.81;66.13;94398.66;4980661;28;20560;-56
2023/01/28 02:38:08;;;;;;;4.90;4.50;;;3.10;99.90;;;2.82;65.96;94395.16;4981313;28;20451;-61
2023/01/28 02:41:00;;;;;;;6.60;4.63;;;3.10;99.90;;;2.82;66.63;94394.28;4977054;28;20491;-56
2023/01/28 02:43:35;;;;;;;4.80;4.40;;;3.10;99.90;;;2.82;65.59;94389.94;4981703;28;20487;-57
2023/01/28 02:48:55;;;;;;;5.10;4.00;;;3.10;99.90;;;2.82;66.30;94394.28;4982817;28;20636;-57
2023/01/28 02:51:37;;;;;;;5.20;4.27;;;3.10;99.90;;;2.79;65.98;94400.53;4991233;28;20485;-58
2023/01/28 02:54:10;;;;;;;3.90;3.50;;;3.10;99.90;;;2.76;65.88;94398.16;4981195;28;20467;-56
2023/01/28 02:56:43;;;;;;;4.10;3.80;;;3.10;99.90;;;2.74;65.53;94400.00;4982945;28;20558;-55
2023/01/28 02:59:32;;;;;;;3.67;3.43;;;3.10;99.90;;;2.73;66.03;94394.91;4983793;28;20450;-56
2023/01/28 03:02:08;;;;;;;4.87;3.70;;;3.10;99.90;;;2.72;65.66;94407.09;4984537;28;20944;-54
2023/01/28 03:04:39;;;;;;;7.33;3.97;;;3.00;99.90;;;2.69;65.41;94402.09;4983834;28;20982;-58
2023/01/28 03:07:07;;;;;;;3.43;3.23;;;3.00;99.90;;;2.64;65.47;94394.63;4987221;28;20478;-58
2023/01/28 03:09:34;;;;;;;4.63;4.33;;;3.00;99.90;;;2.65;65.28;94406.69;4986107;28;20451;-56
2023/01/28 03:37:05;;;;;;;5.87;4.50;;;2.90;99.90;;;2.58;65.59;94402.81;4979468;28;20454;-56
2023/01/28 03:39:32;;;;;;;4.27;3.90;;;2.90;99.90;;;2.60;66.58;94413.09;4978982;28;20826;-58
2023/01/28 03:42:01;;;;;;;4.40;4.10;;;2.90;99.90;;;2.59;65.28;94408.88;4989000;28;20486;-56
2023/01/28 03:47:15;;;;;;;4.10;3.80;;;2.90;99.90;;;2.54;65.91;94409.16;4979179;28;20904;-57
2023/01/28 03:49:44;;;;;;;4.87;4.47;;;2.90;99.90;;;2.55;66.24;94417.78;4984724;28;20468;-58
2023/01/28 03:52:14;;;;;;;3.87;3.57;;;2.90;99.90;;;2.54;65.97;94416.09;5087876;23;20489;-57
2023/01/28 03:54:43;;;;;;;6.00;4.17;;;2.80;99.90;;;2.53;65.11;94417.06;5004983;28;20448;-55
2023/01/28 03:57:11;;;;;;;4.57;4.07;;;2.90;99.90;;;2.51;66.04;94423.19;5022582;28;20484;-58
2023/01/28 03:59:40;;;;;;;4.67;3.80;;;2.90;99.90;;;2.48;65.53;94423.38;5021311;28;20465;-59
2023/01/28 04:02:09;;;;;;;4.07;3.80;;;2.80;99.90;;;2.45;65.63;94423.59;5021667;28;20489;-56
2023/01/28 04:04:41;;;;;;;4.50;4.17;;;2.80;99.90;;;2.46;66.28;94427.00;5018520;28;20996;-55
2023/01/28 04:07:10;;;;;;;5.30;4.80;;;2.80;99.90;;;2.46;66.46;94429.59;5024073;28;21035;-57
2023/01/28 04:09:37;;;;;;;9.10;3.70;;;2.80;99.90;;;2.46;66.23;94427.84;5013517;28;20484;-58
2023/01/28 04:12:05;;;;;;;4.10;3.80;;;2.80;99.90;;;2.44;65.71;94426.28;5008329;28;20499;-57
2023/01/28 04:14:32;;;;;;;6.80;4.97;;;2.80;99.90;;;2.44;66.12;94436.66;5010796;28;20519;-55
2023/01/28 04:17:00;;;;;;;4.23;3.83;;;2.80;99.90;;;2.43;66.43;94443.63;5006467;28;20488;-62
2023/01/28 04:19:27;;;;;;;5.03;4.57;;;2.80;99.90;;;2.42;66.29;94426.38;5012782;28;20461;-56
2023/01/28 04:21:56;;;;;;;4.27;3.90;;;2.80;99.90;;;2.42;65.51;94444.53;5003919;28;21073;-59
2023/01/28 04:24:24;;;;;;;4.43;3.67;;;2.70;99.90;;;2.42;65.60;94447.16;5012333;28;21030;-59
2023/01/28 04:26:51;;;;;;;3.63;3.43;;;2.70;99.90;;;2.43;66.83;94450.56;5011923;28;21203;-58
2023/01/28 04:29:18;;;;;;;4.13;3.83;;;2.80;99.90;;;2.42;66.49;94449.75;5010002;28;21063;-56
2023/01/28 04:31:46;;;;;;;5.33;4.27;;;2.70;99.90;;;2.43;67.05;94447.97;5008788;28;20481;-58
2023/01/28 04:34:13;;;;;;;4.70;4.17;;;2.70;99.90;;;2.44;66.14;94453.06;5004709;28;20523;-57
2023/01/28 04:36:40;;;;;;;4.87;3.93;;;2.80;99.90;;;2.45;66.71;94454.72;5010856;28;21015;-55
2023/01/28 04:39:09;;;;;;;7.40;4.83;;;2.80;99.90;;;2.47;66.98;94452.03;5010244;28;20476;-58
2023/01/28 04:41:36;;;;;;;7.40;4.90;;;2.80;99.90;;;2.47;66.15;94457.22;5008620;28;20481;-56
2023/01/28 04:44:03;;;;;;;6.97;4.60;;;2.80;99.90;;;2.45;65.95;94464.28;5009990;28;20492;-57
2023/01/28 04:46:31;;;;;;;5.63;5.10;;;2.80;99.90;;;2.44;66.20;94468.63;5006590;28;21036;-56
2023/01/28 04:48:58;;;;;;;10.60;5.27;;;2.80;99.90;;;2.44;66.10;94471.22;5008554;28;20458;-56
2023/01/28 04:51:25;;;;;;;11.77;5.27;;;2.80;99.90;;;2.46;66.35;94476.31;5012127;28;20526;-57
2023/01/28 04:53:52;;;;;;;11.77;6.03;;;2.80;99.90;;;2.46;67.09;94481.50;5012321;28;20470;-57
2023/01/28 04:56:21;;;;;;;7.93;5.07;;;2.80;99.90;;;2.45;66.25;94474.66;5008179;28;20485;-56
2023/01/28 04:58:48;;;;;;;9.90;5.27;;;2.80;99.90;;;2.44;66.73;94473.00;5013962;28;20473;-56
2023/01/28 05:01:16;;;;;;;9.97;6.50;;;2.80;99.90;;;2.44;67.15;94479.00;5013935;28;20485;-56
2023/01/28 05:03:43;;;;;;;7.50;5.23;;;2.80;99.90;;;2.45;66.05;94474.66;5010913;28;20495;-59
2023/01/28 05:06:10;;;;;;;12.73;6.10;;;2.80;99.90;;;2.46;66.42;94479.75;5019446;28;20556;-57
2023/01/28 05:08:37;;;;;;;6.40;4.90;;;2.80;99.90;;;2.43;66.46;94477.38;5015403;28;20477;-59
2023/01/28 05:11:05;;;;;;;13.23;6.03;;;2.80;99.90;;;2.42;66.68;94478.28;5010468;28;20591;-57
2023/01/28 05:13:34;;;;;;;9.43;5.07;;;2.80;99.90;;;2.42;66.73;94491.25;5020136;28;20457;-57
2023/01/28 05:16:02;;;;;;;6.40;4.80;;;2.80;99.90;;;2.41;66.15;94492.19;5014294;28;21031;-55
2023/01/28 05:18:29;;;;;;;10.20;8.10;;;2.80;99.90;;;2.41;66.56;94489.59;5007880;28;20836;-58
2023/01/28 05:20:56;;;;;;;26.20;18.70;;;2.80;99.90;;;2.42;66.29;94495.63;5014817;28;20482;-59
2023/01/28 05:23:24;;;;;;;6.87;6.00;;;2.70;99.90;;;2.40;66.27;94503.53;5013555;28;20618;-58
2023/01/28 05:25:51;;;;;;;11.73;4.70;;;2.70;99.90;;;2.36;65.97;94496.84;5016164;28;20973;-55
2023/01/28 05:28:18;;;;;;;7.80;4.90;;;2.70;99.90;;;2.35;66.23;94507.34;5010963;28;20461;-59
2023/01/28 05:30:47;;;;;;;4.47;4.00;;;2.70;99.90;;;2.37;66.39;94497.69;5013385;28;20476;-59
2023/01/28 05:33:14;;;;;;;5.53;5.00;;;2.70;99.90;;;2.39;66.76;94506.22;5010827;28;20456;-57
2023/01/28 05:35:42;;;;;;;4.73;4.33;;;2.70;99.90;;;2.39;66.44;94504.44;5008096;28;20480;-58
2023/01/28 05:38:10;;;;;;;4.60;4.30;;;2.70;99.90;;;2.40;65.75;94503.53;5018346;28;20457;-58
2023/01/28 05:40:37;;;;;;;5.43;4.50;;;2.70;99.90;;;2.42;66.12;94508.59;5006575;28;20513;-58
2023/01/28 05:43:04;;;;;;;4.63;4.10;;;2.70;99.90;;;2.43;66.43;94511.09;5012748;28;20492;-57
2023/01/28 05:45:32;;;;;;;4.60;4.23;;;2.80;99.90;;;2.43;66.50;94521.50;5012468;28;20484;-59
2023/01/28 05:48:00;;;;;;;7.47;6.60;;;2.80;99.90;;;2.44;65.79;94519.72;5007096;28;20811;-56
2023/01/28 05:50:28;;;;;;;4.33;4.00;;;2.70;99.90;;;2.43;65.72;94518.03;5017214;28;20592;-57
2023/01/28 05:52:55;;;;;;;7.20;6.37;;;2.80;99.90;;;2.40;65.83;94516.50;5013304;28;20465;-58
2023/01/28 05:55:22;;;;;;;11.47;8.60;;;2.70;99.90;;;2.38;65.56;94515.75;5007241;28;20493;-56
2023/01/28 05:57:50;;;;;;;6.93;5.60;;;2.70;99.90;;;2.37;65.52;94524.47;5012030;28;20466;-58
2023/01/28 06:00:19;;;;;;;6.23;5.67;;;2.70;99.90;;;2.39;66.24;94529.56;5013108;28;20485;-58
2023/01/28 06:02:46;;;;;;;4.90;4.40;;;2.70;99.90;;;2.36;65.20;94528.00;5005824;28;20493;-58
2023/01/28 06:05:15;;;;;;;5.20;4.30;;;2.70;99.90;;;2.36;65.21;94530.59;5013962;28;20482;-57
2023/01/28 06:07:45;;;;;;;6.27;5.10;;;2.70;99.90;;;2.36;65.83;94530.59;5010793;28;20474;-57
2023/01/28 06:10:12;;;;;;;5.40;4.83;;;2.60;99.90;;;2.37;65.31;94542.66;5014501;28;20503;-57
2023/01/28 06:12:39;;;;;;;5.37;4.87;;;2.70;99.90;;;2.36;66.47;94542.75;5010773;28;21012;-58
2023/01/28 06:15:08;;;;;;;6.03;4.80;;;2.70;99.90;;;2.36;65.77;94540.97;5009849;28;20461;-56
2023/01/28 06:17:35;;;;;;;4.80;4.40;;;2.70;99.90;;;2.39;65.26;94558.13;5008741;28;20458;-59
2023/01/28 06:20:02;;;;;;;4.70;4.33;;;2.70;99.90;;;2.37;66.04;94553.03;5009968;28;20794;-60
2023/01/28 06:22:31;;;;;;;5.13;4.73;;;2.70;99.90;;;2.39;66.11;94553.75;5016557;28;20453;-59
2023/01/28 06:24:59;;;;;;;7.90;6.10;;;2.70;99.90;;;2.40;65.79;94564.94;5010356;28;20512;-58
2023/01/28 06:27:26;;;;;;;6.23;5.40;;;2.70;99.90;;;2.42;65.51;94563.13;5010799;28;20527;-59
2023/01/28 06:29:53;;;;;;;4.60;4.20;;;2.70;99.90;;;2.41;65.67;94570.03;5014389;28;20504;-57
2023/01/28 06:32:20;;;;;;;7.30;5.10;;;2.80;99.90;;;2.41;66.50;94566.63;5010288;28;20987;-57
2023/01/28 06:34:48;;;;;;;10.03;7.23;;;2.70;99.90;;;2.42;65.42;94569.13;5004759;28;20930;-57
2023/01/28 06:37:15;;;;;;;7.90;6.57;;;2.80;99.90;;;2.44;66.27;94569.03;5015121;28;20464;-56
2023/01/28 06:39:44;;;;;;;7.93;7.17;;;2.80;99.90;;;2.46;65.91;94580.13;5007759;28;20858;-58
2023/01/28 06:42:11;;;;;;;7.90;5.40;;;2.80;99.90;;;2.45;65.86;94581.91;5014460;28;20481;-59
2023/01/28 06:44:38;;;;;;;5.50;5.00;;;2.80;99.90;;;2.44;65.25;94577.63;5019920;28;20527;-57
2023/01/28 06:47:06;;;;;;;6.23;5.60;;;2.80;99.90;;;2.46;65.36;94588.78;5013068;28;21047;-58
2023/01/28 06:49:33;;;;;;;6.13;5.63;;;2.80;99.90;;;2.47;65.09;94593.03;5010705;28;20453;-59
2023/01/28 06:52:00;;;;;;;8.70;6.23;;;2.80;99.90;;;2.48;65.53;94599.88;5014253;28;20496;-60
2023/01/28 06:54:28;;;;;;;5.60;5.10;;;2.80;99.90;;;2.50;66.54;94598.00;5010129;28;20834;-58
2023/01/28 06:56:56;;;;;;;5.53;5.07;;;2.80;99.90;;;2.52;65.31;94600.50;5013809;28;20851;-58
2023/01/28 06:59:24;;;;;;;6.23;5.60;;;2.80;99.90;;;2.53;66.54;94603.97;5009443;28;20822;-59
2023/01/28 07:01:51;;;;;;;5.83;5.33;;;2.90;99.90;;;2.56;65.95;94612.38;5015859;28;20469;-58
2023/01/28 07:04:18;;;;;;;6.73;6.10;;;2.90;99.90;;;2.59;66.05;94611.34;5015117;28;21050;-59
2023/01/28 07:06:45;;;;;;;5.57;5.07;;;2.90;99.90;;;2.63;65.38;94605.00;5003396;28;20990;-56
2023/01/28 07:09:13;;;;;;;12.00;6.00;;;2.90;99.90;;;2.66;65.40;94613.44;5003919;28;20495;-57
2023/01/28 07:11:40;;;;;;;6.83;5.80;;;3.00;99.90;;;2.70;65.16;94611.50;5005957;28;20859;-56
2023/01/28 07:14:09;;;;;;;7.97;5.67;;;3.00;99.90;;;2.73;65.55;94619.09;5011533;28;20685;-59
2023/01/28 07:16:36;;;;;;;6.30;5.70;;;3.00;99.90;;;2.76;64.95;94621.50;5009020;28;20870;-58
2023/01/28 07:19:04;;;;;;;6.50;5.83;;;3.10;99.90;;;2.78;65.91;94621.38;5012839;28;20468;-57
2023/01/28 07:21:31;;;;;;;7.40;6.67;;;3.10;99.90;;;2.82;65.67;94628.03;5017139;28;20848;-57
2023/01/28 07:23:58;;;;;;;6.50;6.00;;;3.10;99.90;;;2.82;64.63;94623.69;5014200;28;20496;-56
2023/01/28 07:26:26;;;;;;;8.00;6.90;;;3.10;99.90;;;2.84;65.46;94631.38;5017277;28;20480;-59
2023/01/28 07:28:53;;;;;;;7.90;6.07;;;3.10;99.90;;;2.81;65.00;94632.41;5014683;28;20564;-59
2023/01/28 07:31:22;;;;;;;6.23;5.47;;;3.20;99.90;;;2.86;64.96;94634.69;5016120;28;20480;-57
2023/01/28 07:33:49;;;;;;;6.70;5.87;;;3.20;99.90;;;2.89;65.57;94633.69;5017206;28;20453;-60
2023/01/28 07:36:16;;;;;;;6.97;5.80;;;3.20;99.90;;;2.92;65.15;94638.69;5014988;28;20558;-57
2023/01/28 07:38:43;;;;;;;7.60;5.87;;;3.20;99.90;;;2.94;64.70;94642.81;5013133;28;20459;-60
2023/01/28 07:41:11;;;;;;;6.20;5.47;;;3.30;99.90;;;2.98;65.26;94646.91;4999628;28;20468;-59
2023/01/28 07:43:38;;;;;;;7.47;6.13;;;3.30;99.90;;;3.03;64.54;94657.00;5008883;28;20499;-56
2023/01/28 07:46:05;;;;;;;19.70;14.20;;;3.30;99.90;;;3.06;64.74;94656.78;5008668;28;20542;-56
2023/01/28 07:48:34;;;;;;;8.83;6.70;;;3.40;99.90;;;3.08;64.89;94654.09;5006964;28;20465;-57
2023/01/28 07:51:01;;;;;;;7.67;6.10;;;3.40;99.90;;;3.10;64.24;94653.06;5012158;28;20571;-57
2023/01/28 07:53:29;;;;;;;10.30;7.13;;;3.40;99.90;;;3.15;64.92;94663.16;5017386;28;20457;-57
2023/01/28 07:56:00;;;;;;;6.53;5.93;;;3.40;99.90;;;3.17;64.47;94664.72;5008302;28;20488;-57
2023/01/28 07:58:27;;;;;;;7.87;7.07;;;3.50;99.90;;;3.14;63.67;94664.91;5001975;28;20450;-57
2023/01/28 08:00:57;;;;;;;7.50;6.20;;;3.50;99.90;;;3.11;64.32;94667.72;5000704;28;20489;-58
2023/01/28 08:03:25;;;;;;;6.37;5.30;;;3.40;99.90;;;3.11;64.50;94664.28;4988357;28;20506;-58
2023/01/28 08:05:54;;;;;;;6.73;6.00;;;3.40;99.90;;;3.11;64.27;94664.28;4995775;28;20489;-57
2023/01/28 08:08:22;;;;;;;8.23;6.40;;;3.40;99.90;;;3.13;64.29;94667.63;4998139;28;20461;-57
2023/01/28 08:10:49;;;;;;;6.93;5.70;;;3.40;99.90;;;3.17;64.56;94669.91;4995955;28;20477;-56
2023/01/28 08:13:17;;;;;;;6.37;5.73;;;3.50;99.90;;;3.20;63.80;94676.69;5001909;28;21706;-57
2023/01/28 08:15:44;;;;;;;6.50;5.90;;;3.50;99.90;;;3.22;63.75;94678.25;4996446;28;20482;-57
2023/01/28 08:18:13;;;;;;;5.30;4.90;;;3.50;99.90;;;3.20;63.84;94681.88;5000254;28;20445;-57
2023/01/28 08:20:42;;;;;;;14.10;7.27;;;3.50;99.90;;;3.21;63.71;94681.78;4996954;28;20474;-57
2023/01/28 08:23:13;;;;;;;12.30;10.23;;;3.50;99.90;;;3.25;63.72;94684.19;4997678;28;20964;-58
2023/01/28 08:25:40;;;;;;;5.73;5.23;;;3.50;99.90;;;3.27;63.63;94684.91;4998498;28;20496;-59
2023/01/28 08:28:07;;;;;;;6.50;5.77;;;3.50;99.90;;;3.24;63.16;94688.56;4981688;28;20468;-56
2023/01/28 08:30:36;;;;;;;16.90;6.20;;;3.50;99.70;;;3.21;63.78;94691.34;4978239;28;20489;-56
2023/01/28 08:33:04;;;;;;;13.80;6.80;;;3.50;99.70;;;3.24;63.71;94691.16;4981195;28;20788;-58
2023/01/28 08:35:31;;;;;;;11.83;8.40;;;3.50;99.80;;;3.30;65.62;94689.91;5000491;28;20539;-57
2023/01/28 08:37:59;;;;;;;6.33;5.73;;;3.60;99.90;;;3.43;64.30;94684.75;4998874;28;20465;-58
2023/01/28 08:40:28;;;;;;;6.60;5.80;;;3.70;99.90;;;3.53;64.14;94688.41;4999957;28;20496;-57
2023/01/28 08:42:56;;;;;;;9.50;6.20;;;3.70;99.90;;;3.62;63.71;94694.75;4997403;28;20461;-60
2023/01/28 08:45:24;;;;;;;5.93;5.37;;;3.80;99.80;;;3.69;63.47;94683.03;4997256;28;20496;-56
2023/01/28 08:47:52;;;;;;;6.03;5.43;;;3.90;99.90;;;3.78;62.96;94698.00;4995757;28;21020;-57
2023/01/28 08:50:20;;;;;;;8.93;5.90;;;4.00;99.40;;;3.85;63.08;94688.84;4995342;28;20481;-57
2023/01/28 08:52:48;;;;;;;7.10;5.60;;;4.10;99.60;;;3.94;63.03;94685.63;4998830;28;20466;-58
2023/01/28 08:55:17;;;;;;;6.47;5.70;;;4.20;99.60;;;4.04;62.85;94687.59;4993965;28;21695;-58
2023/01/28 08:57:46;;;;;;;6.57;5.93;;;4.30;99.50;;;4.12;62.95;94699.16;5001568;28;20485;-57
2023/01/28 09:00:15;;;;;;;7.53;5.57;;;4.30;99.40;;;4.17;61.82;94696.25;4997493;28;20484;-58
2023/01/28 09:02:42;;;;;;;7.67;6.33;;;4.40;98.70;;;4.21;62.00;94697.69;4999684;28;20973;-59
2023/01/28 09:05:10;;;;;;;6.77;6.17;;;4.50;98.80;;;4.25;62.17;94698.31;4996538;28;20508;-61
2023/01/28 09:07:37;;;;;;;7.00;5.80;;;4.50;98.90;;;4.25;61.93;94693.94;4999398;28;20572;-59
2023/01/28 09:10:06;;;;;;;5.67;5.17;;;4.50;98.50;;;4.28;61.73;94704.13;4995619;28;20461;-58
2023/01/28 09:12:33;;;;;;;14.30;6.50;;;4.60;98.60;;;4.27;61.48;94702.47;4999521;28;20480;-57
2023/01/28 09:15:02;;;;;;;14.23;6.40;;;4.50;98.30;;;4.23;61.63;94695.81;5000282;28;20610;-58
2023/01/28 09:17:29;;;;;;;47.33;7.63;;;4.50;98.20;;;4.20;62.23;94706.44;4997498;28;20945;-60
2023/01/28 09:19:56;;;;;;;11.50;6.77;;;4.50;98.60;;;4.20;61.73;94703.84;4999637;28;20453;-57
2023/01/28 09:22:23;;;;;;;11.23;6.20;;;4.50;98.30;;;4.16;61.73;94704.97;4997604;28;20449;-60
2023/01/28 09:24:51;;;;;;;13.50;9.93;;;4.40;98.40;;;4.18;61.69;94699.66;5002801;28;20512;-57
2023/01/28 09:27:18;;;;;;;9.17;6.70;;;4.40;98.50;;;4.17;61.32;94706.66;4996825;28;20453;-57
2023/01/28 09:29:45;;;;;;;7.77;6.50;;;4.40;98.20;;;4.16;62.00;94691.97;4999858;28;20450;-57
2023/01/28 09:32:14;;;;;;;6.10;5.50;;;4.40;98.50;;;4.15;61.59;94703.31;4996512;28;20480;-58
2023/01/28 09:34:43;;;;;;;8.80;6.57;;;4.40;98.50;;;4.15;61.93;94698.09;4995454;28;20469;-60
2023/01/28 09:37:10;;;;;;;10.20;6.77;;;4.40;98.50;;;4.18;61.82;94691.84;4998509;28;21032;-58
2023/01/28 09:39:38;;;;;;;6.83;6.10;;;4.40;98.60;;;4.24;61.69;94702.66;4993745;28;20493;-59
2023/01/28 09:42:24;;;;;;;7.63;6.13;;;4.50;98.40;;;4.29;61.35;94690.19;4998411;28;20563;-57
2023/01/28 09:45:01;;;;;;;9.37;6.80;;;4.50;98.80;;;4.26;61.64;94694.75;4993806;28;20512;-58
2023/01/28 09:47:33;;;;;;;8.10;6.40;;;4.50;98.40;;;4.29;61.19;94692.78;4999928;28;20548;-56
2023/01/28 09:50:04;;;;;;;15.37;6.53;;;4.50;98.00;;;4.35;61.95;94698.50;4998660;28;20523;-57
2023/01/28 09:52:35;;;;;;;8.23;6.40;;;4.60;98.50;;;4.38;61.46;94693.91;5004245;28;20461;-59
2023/01/28 09:55:04;;;;;;;6.70;6.10;;;4.60;98.30;;;4.37;61.45;94696.63;4999030;28;20457;-56
2023/01/28 09:57:37;;;;;;;10.57;6.90;;;4.60;98.30;;;4.38;61.14;94695.69;5002220;28;20560;-59
2023/01/28 10:00:13;;;;;;;12.63;6.87;;;4.60;98.00;;;4.39;61.16;94699.97;4997924;28;21979;-57
2023/01/28 10:02:54;;;;;;;7.23;6.50;;;4.60;98.10;;;4.39;61.80;94700.78;5003638;28;20531;-59
2023/01/28 10:05:26;;;;;;;8.17;6.60;;;4.70;98.40;;;4.35;61.97;94688.09;5004922;28;20497;-60
2023/01/28 10:07:59;;;;;;;13.87;9.27;;;4.70;98.50;;;4.37;61.88;94692.25;5015194;28;20453;-57
2023/01/28 10:10:29;;;;;;;23.00;15.67;;;4.70;98.70;;;4.41;61.45;94698.06;5015161;28;20539;-57
2023/01/28 10:13:07;;;;;;;19.20;12.60;;;4.60;98.40;;;4.39;61.84;94684.34;5015857;28;20460;-59
2023/01/28 10:15:54;;;;;;;13.23;10.80;;;4.60;98.50;;;4.43;62.35;94686.63;5007442;28;21309;-55
2023/01/28 10:18:31;;;;;;;15.73;10.87;;;4.70;98.80;;;4.49;62.38;94685.34;5009586;28;20536;-57
2023/01/28 10:21:03;;;;;;;15.57;12.07;;;4.70;98.80;;;4.58;62.19;94686.47;5010728;28;20485;-58
2023/01/28 10:23:35;;;;;;;14.10;8.50;;;4.80;98.80;;;4.65;61.79;94688.53;5009854;28;20960;-56
2023/01/28 10:26:02;;;;;;;9.27;7.87;;;4.90;98.60;;;4.70;61.45;94692.59;5014478;28;20493;-59
2023/01/28 10:28:29;;;;;;;10.00;7.47;;;4.90;98.40;;;4.76;61.42;94692.19;5009685;28;21056;-59
2023/01/28 10:30:57;;;;;;;7.80;6.43;;;5.00;98.10;;;4.76;61.39;94687.78;5011422;28;20510;-57
2023/01/28 10:33:31;;;;;;;10.30;7.70;;;5.00;98.00;;;4.81;61.04;94696.09;5014352;28;20960;-60
2023/01/28 10:35:59;;;;;;;12.17;7.47;;;5.00;98.00;;;4.85;60.77;94681.09;5009535;28;20480;-60
2023/01/28 10:38:27;;;;;;;9.30;6.73;;;5.10;98.00;;;4.86;60.80;94687.94;5006718;28;20460;-59
2023/01/28 10:40:55;;;;;;;8.37;6.53;;;5.10;97.60;;;4.86;60.38;94693.16;5007306;28;20478;-56
2023/01/28 10:43:24;;;;;;;8.07;6.70;;;5.10;97.60;;;4.85;60.28;94673.28;5003315;28;20829;-59
2023/01/28 10:45:57;;;;;;;7.60;6.37;;;5.10;97.40;;;4.89;60.19;94682.53;5006467;28;20507;-60
2023/01/28 10:48:29;;;;;;;11.57;6.37;;;5.10;97.20;;;4.89;60.31;94682.53;5005658;28;20993;-57
2023/01/28 10:51:00;;;;;;;8.60;7.13;;;5.10;97.10;;;4.89;60.34;94686.91;5014607;28;20470;-58
2023/01/28 10:53:35;;;;;;;9.07;6.70;;;5.10;97.50;;;4.89;59.46;94686.91;5015454;28;20919;-57
2023/01/28 10:56:03;;;;;;;7.90;6.33;;;5.10;96.60;;;4.88;60.01;94680.03;5002726;28;20627;-57
2023/01/28 10:58:34;;;;;;;8.40;7.43;;;5.10;97.10;;;4.84;59.61;94684.63;5009086;28;20462;-57
2023/01/28 11:01:03;;;;;;;8.40;6.10;;;5.10;96.70;;;4.83;60.12;94678.59;5011454;28;20473;-58
2023/01/28 11:03:34;;;;;;;10.73;5.90;;;5.10;97.10;;;4.83;59.83;94689.03;5017037;28;20481;-58
2023/01/28 11:06:01;;;;;;;9.03;6.90;;;5.10;97.00;;;4.76;59.75;94679.97;5017613;28;20500;-60
2023/01/28 11:08:29;;;;;;;8.23;7.30;;;5.00;96.90;;;4.70;60.11;94682.19;5016952;28;20961;-58
2023/01/28 11:10:57;;;;;;;11.33;8.43;;;4.90;97.10;;;4.69;60.41;94685.72;5018815;28;20473;-57